createdAt,value
2024-03-12T11:01:58.840Z,61
2024-03-12T11:02:13.824Z,58
2024-03-12T11:02:23.883Z,61
2024-03-12T11:02:33.818Z,60
2024-03-12T11:02:58.835Z,61
2024-03-12T11:03:18.806Z,58
2024-03-12T11:03:28.804Z,59
2024-03-12T11:04:18.913Z,60
2024-03-12T11:04:33.828Z,60
2024-03-12T11:05:18.804Z,61
2024-03-12T11:05:38.805Z,61
2024-03-12T11:06:23.934Z,61
2024-03-12T11:06:38.965Z,58
2024-03-12T11:07:33.876Z,61
2024-03-12T11:07:43.864Z,58
2024-03-12T11:07:53.871Z,59
2024-03-12T11:08:28.870Z,60
2024-03-12T11:08:38.878Z,61
2024-03-12T11:08:53.890Z,59
2024-03-12T11:09:53.905Z,60
2024-03-12T11:10:28.918Z,60
2024-03-12T11:10:38.863Z,59
2024-03-12T11:11:08.901Z,59
2024-03-12T11:11:33.919Z,61
2024-03-12T11:11:48.864Z,59
2024-03-12T11:12:13.856Z,59
2024-03-12T11:12:43.921Z,61
2024-03-12T11:13:13.999Z,61
2024-03-12T11:13:23.870Z,60
2024-03-12T11:13:48.867Z,61
2024-03-12T11:13:58.854Z,59
2024-03-12T11:14:18.861Z,61
2024-03-12T11:14:28.867Z,61
2024-03-12T11:14:48.878Z,60
2024-03-12T11:15:03.861Z,60
2024-03-12T11:15:28.867Z,61
2024-03-12T11:15:58.874Z,61
2024-03-12T11:16:08.957Z,61
2024-03-12T11:16:33.858Z,60
2024-03-12T11:16:43.868Z,61
2024-03-12T11:17:03.908Z,59
2024-03-12T11:17:39.094Z,60
2024-03-12T11:18:08.887Z,58
2024-03-12T11:18:18.964Z,60
2024-03-12T11:18:44.417Z,58
2024-03-12T11:19:08.921Z,60
2024-03-12T11:19:19.161Z,59
2024-03-12T11:19:48.878Z,59
2024-03-12T11:20:02.051Z,60
2024-03-12T11:20:08.880Z,61
2024-03-12T11:20:48.878Z,61
2024-03-12T11:20:58.877Z,60
2024-03-12T11:21:13.881Z,61
2024-03-12T11:21:49.038Z,61
2024-03-12T11:21:58.922Z,61
2024-03-12T11:22:13.996Z,58
2024-03-12T11:22:33.899Z,61
2024-03-12T11:22:48.893Z,58
2024-03-12T11:23:13.892Z,60
2024-03-12T11:23:38.907Z,60
2024-03-12T11:24:03.877Z,59
2024-03-12T11:24:13.892Z,61
2024-03-12T11:24:23.900Z,60
2024-03-12T11:24:48.932Z,61
2024-03-12T11:24:58.919Z,60
2024-03-12T11:25:23.954Z,61
2024-03-12T11:26:08.878Z,60
2024-03-12T11:26:36.898Z,61
2024-03-12T11:27:18.886Z,60
2024-03-12T11:27:28.886Z,58
2024-03-12T11:28:18.883Z,61
2024-03-12T11:28:28.881Z,60
2024-03-12T11:28:43.866Z,59
2024-03-12T11:29:03.904Z,61
2024-03-12T11:29:28.875Z,61
2024-03-12T11:29:38.885Z,60
2024-03-12T11:29:48.901Z,58
2024-03-12T11:30:08.937Z,61
2024-03-12T11:30:28.901Z,59
2024-03-12T11:30:38.954Z,61
2024-03-12T11:30:53.942Z,60
2024-03-12T11:31:43.890Z,60
2024-03-12T11:32:18.885Z,60
2024-03-12T11:32:43.935Z,59
2024-03-12T11:33:43.979Z,60
2024-03-12T11:33:54.258Z,60
2024-03-12T11:34:23.901Z,60
2024-03-12T11:34:38.893Z,59
2024-03-12T11:34:48.890Z,61
2024-03-12T11:35:03.931Z,59
2024-03-12T11:35:38.928Z,60
2024-03-12T11:35:53.993Z,59
2024-03-12T11:36:09.603Z,60
2024-03-12T11:36:58.953Z,59
2024-03-12T11:37:14.061Z,61
2024-03-12T11:37:58.903Z,60
2024-03-12T11:38:23.920Z,61
2024-03-12T11:38:48.901Z,59
2024-03-12T11:39:03.912Z,61
2024-03-12T11:39:28.970Z,60
2024-03-12T11:39:43.972Z,60
2024-03-12T11:39:53.941Z,59
2024-03-12T11:40:03.932Z,60
2024-03-12T11:40:43.906Z,61
2024-03-12T11:40:53.956Z,61
2024-03-12T11:41:08.906Z,58
2024-03-12T11:41:33.919Z,60
2024-03-12T11:41:43.911Z,59
2024-03-12T11:42:09.142Z,60
2024-03-12T11:42:34.006Z,61
2024-03-12T11:43:03.982Z,60
2024-03-12T11:43:18.921Z,60
2024-03-12T11:43:39.331Z,60
2024-03-12T11:43:53.932Z,60
2024-03-12T11:44:19.094Z,61
2024-03-12T11:44:43.976Z,59
2024-03-12T11:44:53.984Z,61
2024-03-12T11:46:38.952Z,60
2024-03-12T11:46:49.050Z,60
2024-03-12T11:47:34.033Z,60
2024-03-12T11:47:48.981Z,60
2024-03-12T11:47:59.074Z,60
2024-03-12T11:48:09.172Z,60
2024-03-12T11:48:23.976Z,60
2024-03-12T11:48:59.038Z,60
2024-03-12T11:49:09.112Z,60
2024-03-12T11:49:33.969Z,60
2024-03-12T11:50:01.595Z,60
2024-03-12T11:50:13.967Z,59
2024-03-12T11:50:43.950Z,58
2024-03-12T11:51:04.127Z,61
2024-03-12T11:51:14.086Z,59
2024-03-12T11:51:49.167Z,60
2024-03-12T11:52:19.072Z,60
2024-03-12T11:52:29.260Z,58
2024-03-12T11:52:49.212Z,61
2024-03-12T11:53:09.143Z,60
2024-03-12T11:53:24.195Z,60
2024-03-12T11:53:54.173Z,60
2024-03-12T11:54:29.121Z,60
2024-03-12T11:54:39.148Z,60
2024-03-12T11:54:59.197Z,60
2024-03-12T11:55:34.159Z,60
2024-03-12T11:55:49.193Z,60
2024-03-12T11:56:06.410Z,60
2024-03-12T11:56:29.184Z,60
2024-03-12T11:56:39.213Z,60
2024-03-12T11:56:54.089Z,60
2024-03-12T11:57:04.259Z,60
2024-03-12T11:57:29.242Z,60
2024-03-12T11:57:44.165Z,60
2024-03-12T11:57:54.146Z,60
2024-03-12T11:58:19.157Z,60
2024-03-12T11:58:49.127Z,60
2024-03-12T11:59:20.253Z,60
2024-03-12T11:59:54.145Z,60
2024-03-12T12:00:24.522Z,60
2024-03-12T12:00:54.262Z,60
2024-03-12T12:01:04.352Z,60
2024-03-12T12:01:19.290Z,60
2024-03-12T12:01:35.261Z,60
2024-03-12T12:01:49.328Z,60
2024-03-12T12:02:01.007Z,60
2024-03-12T12:02:14.169Z,60
2024-03-12T12:02:24.156Z,60
2024-03-12T12:03:14.169Z,60
2024-03-12T12:03:24.162Z,60
2024-03-12T12:03:44.179Z,60
2024-03-12T12:04:24.230Z,60
2024-03-12T12:05:24.174Z,61
2024-03-12T12:05:34.166Z,61
2024-03-12T12:06:39.177Z,61
2024-03-12T12:07:14.188Z,61
2024-03-12T12:07:44.157Z,60
2024-03-12T12:08:24.165Z,61
2024-03-12T12:08:46.040Z,60
2024-03-12T12:09:00.948Z,61
2024-03-12T12:09:24.175Z,59
2024-03-12T12:09:39.201Z,61
2024-03-12T12:10:34.154Z,59
2024-03-12T12:10:49.179Z,61
2024-03-12T12:11:09.162Z,60
2024-03-12T12:11:34.175Z,61
2024-03-12T12:11:44.228Z,60
2024-03-12T12:11:59.207Z,60
2024-03-12T12:12:14.174Z,60
2024-03-12T12:12:34.203Z,60
2024-03-12T12:13:04.234Z,58
2024-03-12T12:13:44.151Z,58
2024-03-12T12:14:05.456Z,61
2024-03-12T12:14:24.165Z,58
2024-03-12T12:14:44.179Z,60
2024-03-12T12:15:14.346Z,61
2024-03-12T12:15:49.272Z,61
2024-03-12T12:16:04.248Z,59
2024-03-12T12:16:55.038Z,59
2024-03-12T12:17:04.180Z,61
2024-03-12T12:17:34.226Z,61
2024-03-12T12:17:59.225Z,59
2024-03-12T12:19:18.976Z,59
2024-03-12T12:19:35.279Z,61
2024-03-12T12:19:42.961Z,61
2024-03-12T12:20:24.187Z,60
2024-03-12T12:20:34.176Z,59
2024-03-12T12:21:14.164Z,60
2024-03-12T12:21:34.209Z,60
2024-03-12T12:21:49.234Z,58
2024-03-12T12:22:14.204Z,60
2024-03-12T12:22:44.173Z,61
2024-03-12T12:22:54.159Z,59
2024-03-12T12:23:14.188Z,61
2024-03-12T12:23:44.161Z,60
2024-03-12T12:23:54.152Z,61
2024-03-12T12:24:14.164Z,59
2024-03-12T12:24:49.232Z,58
2024-03-12T12:24:59.199Z,61
2024-03-12T12:25:14.232Z,60
2024-03-12T12:25:29.171Z,58
2024-03-12T12:25:54.160Z,60
2024-03-12T12:26:04.179Z,59
2024-03-12T12:27:14.182Z,60
2024-03-12T12:27:44.233Z,60
2024-03-12T12:27:54.170Z,60
2024-03-12T12:28:04.315Z,60
2024-03-12T12:28:19.332Z,60
2024-03-12T12:28:29.201Z,59
2024-03-12T12:29:24.182Z,61
2024-03-12T12:29:49.369Z,58
2024-03-12T12:30:29.200Z,58
2024-03-12T12:30:59.232Z,59
2024-03-12T12:31:09.257Z,60
2024-03-12T12:31:19.214Z,61
2024-03-12T12:31:34.175Z,59
2024-03-12T12:32:19.197Z,58
2024-03-12T12:32:39.239Z,61
2024-03-12T12:33:44.205Z,61
2024-03-12T12:34:09.249Z,58
2024-03-12T12:34:19.284Z,60
2024-03-12T12:34:29.194Z,61
2024-03-12T12:34:49.201Z,58
2024-03-12T12:35:09.194Z,61
2024-03-12T12:35:19.198Z,59
2024-03-12T12:35:29.196Z,60
2024-03-12T12:35:50.690Z,60
2024-03-12T12:36:09.224Z,59
2024-03-12T12:36:19.213Z,61
2024-03-12T12:36:29.210Z,60
2024-03-12T12:36:54.283Z,61
2024-03-12T12:37:04.244Z,61
2024-03-12T12:37:39.242Z,60
2024-03-12T12:38:29.237Z,58
2024-03-12T12:38:45.828Z,61
2024-03-12T12:39:36.663Z,61
2024-03-12T12:39:53.603Z,58
2024-03-12T12:39:59.261Z,59
2024-03-12T12:40:09.345Z,61
2024-03-12T12:40:29.359Z,58
2024-03-12T12:40:59.670Z,58
2024-03-12T12:41:14.221Z,61
2024-03-12T12:41:45.036Z,59
2024-03-12T12:42:09.261Z,60
2024-03-12T12:42:19.364Z,60
2024-03-12T12:42:39.266Z,56
2024-03-12T12:42:49.232Z,55
2024-03-12T12:43:04.236Z,55
2024-03-12T12:43:14.478Z,54
2024-03-12T12:43:44.230Z,53
2024-03-12T12:44:14.230Z,52
2024-03-12T12:44:24.234Z,52
2024-03-12T12:44:44.253Z,51
2024-03-12T12:45:14.223Z,51
2024-03-12T12:45:24.245Z,50
2024-03-12T12:46:19.319Z,49
2024-03-12T12:46:29.378Z,49
2024-03-12T12:47:09.250Z,61
2024-03-12T12:47:19.239Z,60
2024-03-12T12:47:59.275Z,58
2024-03-12T12:48:29.261Z,58
2024-03-12T12:48:44.338Z,61
2024-03-12T12:49:19.576Z,60
2024-03-12T12:49:29.347Z,60
2024-03-12T12:49:39.258Z,60
2024-03-12T12:50:19.263Z,61
2024-03-12T12:50:34.259Z,58
2024-03-12T12:51:09.259Z,59
2024-03-12T12:51:39.305Z,59
2024-03-12T12:51:59.321Z,59
2024-03-12T12:52:44.265Z,59
2024-03-12T12:52:54.247Z,59
2024-03-12T12:53:04.241Z,59
2024-03-12T12:53:24.241Z,59
2024-03-12T12:53:34.256Z,59
2024-03-12T12:54:29.272Z,59
2024-03-12T12:54:44.295Z,59
2024-03-12T12:55:54.245Z,59
2024-03-12T12:56:34.253Z,59
2024-03-12T12:56:44.430Z,59
2024-03-12T12:57:04.252Z,59
2024-03-12T12:57:44.284Z,59
2024-03-12T12:58:09.301Z,59
2024-03-12T12:58:49.256Z,59
2024-03-12T12:59:14.441Z,59
2024-03-12T12:59:24.245Z,59
2024-03-12T12:59:49.250Z,59
2024-03-12T13:00:24.343Z,59
2024-03-12T13:00:34.313Z,59
2024-03-12T13:00:54.326Z,59
2024-03-12T13:01:34.351Z,59
2024-03-12T13:01:44.375Z,59
2024-03-12T13:01:54.321Z,59
2024-03-12T13:02:29.249Z,59
2024-03-12T13:02:39.245Z,59
2024-03-12T13:03:09.247Z,59
2024-03-12T13:03:39.407Z,59
2024-03-12T13:04:44.239Z,59
2024-03-12T13:04:54.238Z,59
2024-03-12T13:05:04.270Z,59
2024-03-12T13:05:14.247Z,59
2024-03-12T13:05:34.248Z,59
2024-03-12T13:05:44.250Z,59
2024-03-12T13:06:14.243Z,59
2024-03-12T13:06:49.284Z,59
2024-03-12T13:07:19.399Z,59
2024-03-12T13:07:54.237Z,59
2024-03-12T13:08:04.252Z,59
2024-03-12T13:08:59.288Z,59
2024-03-12T13:09:09.262Z,59
2024-03-12T13:10:04.289Z,59
2024-03-12T13:10:14.317Z,59
2024-03-12T13:10:29.342Z,59
2024-03-12T13:10:54.288Z,59
2024-03-12T13:11:09.280Z,59
2024-03-12T13:11:19.486Z,59
2024-03-12T13:12:14.275Z,59
2024-03-12T13:12:24.281Z,59
2024-03-12T13:13:24.288Z,59
2024-03-12T13:13:34.286Z,59
2024-03-12T13:14:29.319Z,59
2024-03-12T13:14:44.306Z,59
2024-03-12T13:15:04.315Z,59
2024-03-12T13:15:14.285Z,59
2024-03-12T13:15:29.362Z,59
2024-03-12T13:15:40.709Z,59
2024-03-12T13:15:54.298Z,59
2024-03-12T13:16:14.435Z,59
2024-03-12T13:16:54.295Z,59
2024-03-12T13:17:14.296Z,59
2024-03-12T13:17:59.371Z,59
2024-03-12T13:18:24.311Z,59
2024-03-12T13:18:41.175Z,59
2024-03-12T13:18:49.396Z,59
2024-03-12T13:18:59.407Z,59
2024-03-12T13:19:29.651Z,59
2024-03-12T13:19:49.334Z,59
2024-03-12T13:19:59.349Z,59
2024-03-12T13:20:34.594Z,59
2024-03-12T13:20:54.336Z,59
2024-03-12T13:21:14.329Z,59
2024-03-12T13:21:24.342Z,59
2024-03-12T13:21:34.407Z,59
2024-03-12T13:21:54.438Z,59
2024-03-12T13:22:13.718Z,59
2024-03-12T13:22:22.954Z,59
2024-03-12T13:22:39.417Z,59
2024-03-12T13:22:59.367Z,59
2024-03-12T13:23:09.351Z,59
2024-03-12T13:23:59.370Z,59
2024-03-12T13:24:24.352Z,59
2024-03-12T13:24:34.388Z,59
2024-03-12T13:24:44.414Z,59
2024-03-12T13:25:04.422Z,59
2024-03-12T13:25:24.467Z,59
2024-03-12T13:25:34.371Z,59
2024-03-12T13:25:44.367Z,59
2024-03-12T13:25:59.384Z,59
2024-03-12T13:26:09.389Z,59
2024-03-12T13:26:19.381Z,59
2024-03-12T13:26:29.391Z,59
2024-03-12T13:26:39.381Z,59
2024-03-12T13:26:49.362Z,59
2024-03-12T13:26:59.630Z,59
2024-03-12T13:27:29.396Z,59
2024-03-12T13:27:49.428Z,59
2024-03-12T13:28:14.456Z,59
2024-03-12T13:28:34.369Z,59
2024-03-12T13:29:14.377Z,59
2024-03-12T13:29:39.372Z,59
2024-03-12T13:29:59.737Z,59
2024-03-12T13:30:14.416Z,59
2024-03-12T13:30:39.399Z,59
2024-03-12T13:30:49.394Z,59
2024-03-12T13:30:59.416Z,59
2024-03-12T13:31:14.519Z,59
2024-03-12T13:31:44.386Z,59
2024-03-12T13:31:54.378Z,59
2024-03-12T13:32:19.397Z,59
2024-03-12T13:32:59.436Z,59
2024-03-12T13:33:19.416Z,59
2024-03-12T13:34:04.458Z,59
2024-03-12T13:34:49.446Z,59
2024-03-12T13:34:59.461Z,59
2024-03-12T13:35:14.438Z,59
2024-03-12T13:35:59.454Z,59
2024-03-12T13:36:29.444Z,59
2024-03-12T13:36:39.480Z,59
2024-03-12T13:37:04.468Z,59
2024-03-12T13:37:24.493Z,59
2024-03-12T13:37:34.423Z,59
2024-03-12T13:37:44.415Z,59
2024-03-12T13:38:09.432Z,59
2024-03-12T13:38:29.412Z,59
2024-03-12T13:38:39.439Z,59
2024-03-12T13:38:49.428Z,59
2024-03-12T13:39:09.435Z,59
2024-03-12T13:39:29.427Z,59
2024-03-12T13:39:49.445Z,59
2024-03-12T13:40:14.570Z,59
2024-03-12T13:40:54.436Z,59
2024-03-12T13:41:23.020Z,59
2024-03-12T13:41:59.463Z,59
2024-03-12T13:42:59.511Z,59
2024-03-12T13:43:44.468Z,59
2024-03-12T13:43:54.452Z,59
2024-03-12T13:44:09.461Z,59
2024-03-12T13:44:19.491Z,59
2024-03-12T13:44:44.468Z,59
2024-03-12T13:45:14.458Z,59
2024-03-12T13:46:04.480Z,59
2024-03-12T13:46:24.538Z,59
2024-03-12T13:47:09.496Z,59
2024-03-12T13:47:29.502Z,59
2024-03-12T13:47:54.548Z,59
2024-03-12T13:48:09.605Z,59
2024-03-12T13:48:29.503Z,59
2024-03-12T13:48:59.520Z,59
2024-03-12T13:49:19.566Z,59
2024-03-12T13:49:34.475Z,59
2024-03-12T13:49:44.467Z,59
2024-03-12T13:50:19.486Z,59
2024-03-12T13:50:39.474Z,59
2024-03-12T13:50:49.482Z,59
2024-03-12T13:51:29.492Z,59
2024-03-12T13:51:44.801Z,59
2024-03-12T13:51:54.545Z,59
2024-03-12T13:52:04.528Z,59
2024-03-12T13:52:24.519Z,59
2024-03-12T13:52:34.485Z,59
2024-03-12T13:52:44.491Z,59
2024-03-12T13:53:49.485Z,59
2024-03-12T13:53:59.508Z,59
2024-03-12T13:54:49.538Z,59
2024-03-12T13:55:09.526Z,59
2024-03-12T13:55:44.512Z,59
2024-03-12T13:55:54.503Z,59
2024-03-12T13:56:14.513Z,59
2024-03-12T13:56:49.507Z,59
2024-03-12T13:56:59.518Z,59
2024-03-12T13:57:19.510Z,59
2024-03-12T13:57:29.509Z,59
2024-03-12T13:57:54.540Z,59
2024-03-12T13:58:09.590Z,59
2024-03-12T13:58:19.530Z,59
2024-03-12T13:59:09.570Z,59
2024-03-12T13:59:19.529Z,59
2024-03-12T14:00:14.615Z,59
2024-03-12T14:00:24.528Z,59
2024-03-12T14:00:34.701Z,59
2024-03-12T14:00:44.590Z,59
2024-03-12T14:01:09.657Z,59
2024-03-12T14:02:09.722Z,59
2024-03-12T14:04:24.822Z,59
2024-03-12T14:04:34.661Z,59
2024-03-12T14:05:14.575Z,59
2024-03-12T14:05:35.809Z,59
2024-03-12T14:06:44.612Z,59
2024-03-12T14:07:34.592Z,59
2024-03-12T14:07:49.595Z,59
2024-03-12T14:08:04.593Z,59
2024-03-12T14:08:24.590Z,59
2024-03-12T14:08:39.597Z,59
2024-03-12T14:08:49.594Z,59
2024-03-12T14:09:29.618Z,59
2024-03-12T14:09:44.645Z,59
2024-03-12T14:10:19.763Z,59
2024-03-12T14:10:29.647Z,59
2024-03-12T14:10:54.664Z,59
2024-03-12T14:11:19.620Z,59
2024-03-12T14:11:59.616Z,59
2024-03-12T14:12:49.646Z,59
2024-03-12T14:12:59.610Z,59
2024-03-12T14:13:09.646Z,59
2024-03-12T14:13:59.636Z,59
2024-03-12T14:14:09.770Z,59
2024-03-12T14:14:44.612Z,59
2024-03-12T14:15:04.619Z,59
2024-03-12T14:15:19.623Z,59
2024-03-12T14:15:39.659Z,59
2024-03-12T14:15:49.677Z,59
2024-03-12T14:16:09.666Z,59
2024-03-12T14:16:22.171Z,59
2024-03-12T14:17:04.635Z,59
2024-03-12T14:17:14.637Z,59
2024-03-12T14:17:24.690Z,59
2024-03-12T14:17:44.664Z,59
2024-03-12T14:17:54.687Z,59
2024-03-12T14:18:04.688Z,59
2024-03-12T14:18:14.749Z,59
2024-03-12T14:18:24.670Z,59
2024-03-12T14:18:44.672Z,59
2024-03-12T14:19:04.773Z,59
2024-03-12T14:19:34.653Z,59
2024-03-12T14:19:59.653Z,59
2024-03-12T14:20:09.646Z,59
2024-03-12T14:20:19.650Z,59
2024-03-12T14:20:29.655Z,59
2024-03-12T14:20:39.662Z,59
2024-03-12T14:20:49.655Z,59
2024-03-12T14:20:59.654Z,59
2024-03-12T14:21:09.658Z,59
2024-03-12T14:21:19.668Z,59
2024-03-12T14:21:30.788Z,59
2024-03-12T14:23:09.696Z,59
2024-03-12T14:23:24.694Z,59
2024-03-12T14:23:44.704Z,59
2024-03-12T14:24:14.718Z,59
2024-03-12T14:24:24.693Z,59
2024-03-12T14:24:49.724Z,59
2024-03-12T14:25:19.721Z,59
2024-03-12T14:25:29.685Z,59
2024-03-12T14:25:49.692Z,59
2024-03-12T14:26:19.733Z,59
2024-03-12T14:26:29.702Z,59
2024-03-12T14:26:49.704Z,59
2024-03-12T14:27:24.713Z,59
2024-03-12T14:27:39.739Z,59
2024-03-12T14:28:34.692Z,59
2024-03-12T14:29:29.709Z,59
2024-03-12T14:29:39.719Z,59
2024-03-12T14:30:34.739Z,59
2024-03-12T14:30:44.728Z,59
2024-03-12T14:31:14.818Z,59
2024-03-12T14:31:34.708Z,59
2024-03-12T14:31:44.714Z,59
2024-03-12T14:31:54.707Z,59
2024-03-12T14:32:04.728Z,59
2024-03-12T14:32:19.720Z,59
2024-03-12T14:32:39.733Z,59
2024-03-12T14:32:49.745Z,59
2024-03-12T14:32:59.740Z,59
2024-03-12T14:33:09.778Z,59
2024-03-12T14:33:49.848Z,59
2024-03-12T14:33:59.745Z,59
2024-03-12T14:34:09.940Z,59
2024-03-12T14:34:24.902Z,59
2024-03-12T14:34:54.743Z,59
2024-03-12T14:35:04.738Z,59
2024-03-12T14:35:14.755Z,59
2024-03-12T14:35:29.745Z,59
2024-03-12T14:35:59.735Z,59
2024-03-12T14:36:09.748Z,59
2024-03-12T14:36:19.743Z,59
2024-03-12T14:36:29.751Z,59
2024-03-12T14:37:04.810Z,59
2024-03-12T14:38:04.755Z,59
2024-03-12T14:38:19.762Z,59
2024-03-12T14:38:34.755Z,59
2024-03-12T14:38:55.383Z,59
2024-03-12T14:39:04.760Z,59
2024-03-12T14:39:14.772Z,59
2024-03-12T14:39:24.756Z,59
2024-03-12T14:39:34.818Z,59
2024-03-12T14:39:54.834Z,59
2024-03-12T14:40:04.811Z,59
2024-03-12T14:40:14.895Z,59
2024-03-12T14:40:24.971Z,59
2024-03-12T14:40:34.794Z,59
2024-03-12T14:40:54.763Z,59
2024-03-12T14:41:29.783Z,59
2024-03-12T14:42:39.796Z,59
2024-03-12T14:43:24.834Z,59
2024-03-12T14:43:49.785Z,59
2024-03-12T14:43:59.780Z,59
2024-03-12T14:44:09.781Z,59
2024-03-12T14:44:29.780Z,59
2024-03-12T14:44:39.784Z,59
2024-03-12T14:44:49.779Z,59
2024-03-12T14:44:59.797Z,59
2024-03-12T14:45:09.787Z,59
2024-03-12T14:45:54.820Z,59
2024-03-12T14:46:09.880Z,59
2024-03-12T14:46:44.808Z,59
2024-03-12T14:46:54.795Z,59
2024-03-12T14:47:09.796Z,59
2024-03-12T14:47:59.844Z,59
2024-03-12T14:48:14.932Z,59
2024-03-12T14:48:24.801Z,59
2024-03-12T14:48:59.832Z,59
2024-03-12T14:49:09.844Z,59
2024-03-12T14:49:19.837Z,59
2024-03-12T14:49:36.117Z,59
2024-03-12T14:50:04.801Z,59
2024-03-12T14:50:49.804Z,59
2024-03-12T14:51:09.829Z,59
2024-03-12T14:51:19.816Z,59
2024-03-12T14:51:49.855Z,59
2024-03-12T14:52:14.915Z,59
2024-03-12T14:52:24.824Z,59
2024-03-12T14:52:34.823Z,59
2024-03-12T14:52:54.862Z,59
2024-03-12T14:53:19.844Z,59
2024-03-12T14:53:34.829Z,59
2024-03-12T14:53:59.841Z,59
2024-03-12T14:54:19.833Z,59
2024-03-12T14:54:29.860Z,59
2024-03-12T14:54:44.903Z,59
2024-03-12T14:54:59.863Z,59
2024-03-12T14:55:24.992Z,59
2024-03-12T14:55:49.870Z,59
2024-03-12T14:55:59.862Z,59
2024-03-12T14:56:29.844Z,59
2024-03-12T14:56:39.848Z,59
2024-03-12T14:56:49.857Z,59
2024-03-12T14:56:59.866Z,59
2024-03-12T14:57:29.846Z,59
2024-03-12T14:57:39.908Z,59
2024-03-12T14:57:59.916Z,59
2024-03-12T14:58:34.873Z,59
2024-03-12T14:58:44.874Z,59
2024-03-12T14:59:09.858Z,59
2024-03-12T14:59:29.857Z,59
2024-03-12T14:59:39.865Z,59
2024-03-12T14:59:49.878Z,59
2024-03-12T15:00:09.866Z,59
2024-03-12T15:00:29.952Z,59
2024-03-12T15:00:44.913Z,59
2024-03-12T15:00:54.940Z,59
2024-03-12T15:01:10.017Z,59
2024-03-12T15:01:35.086Z,59
2024-03-12T15:01:44.983Z,59
2024-03-12T15:01:54.997Z,59
2024-03-12T15:02:04.935Z,59
2024-03-12T15:02:14.911Z,59
2024-03-12T15:03:09.881Z,59
2024-03-12T15:03:19.965Z,59
2024-03-12T15:03:54.885Z,59
2024-03-12T15:04:04.921Z,59
2024-03-12T15:04:20.005Z,59
2024-03-12T15:05:14.893Z,59
2024-03-12T15:05:24.961Z,59
2024-03-12T15:06:24.904Z,59
2024-03-12T15:07:09.960Z,59
2024-03-12T15:07:20.010Z,59
2024-03-12T15:07:29.932Z,59
2024-03-12T15:07:49.943Z,59
2024-03-12T15:08:09.921Z,59
2024-03-12T15:08:19.928Z,59
2024-03-12T15:08:29.932Z,59
2024-03-12T15:08:49.919Z,59
2024-03-12T15:09:09.926Z,59
2024-03-12T15:09:19.921Z,59
2024-03-12T15:09:39.976Z,59
2024-03-12T15:09:49.973Z,59
2024-03-12T15:10:10.016Z,59
2024-03-12T15:10:19.939Z,59
2024-03-12T15:11:19.937Z,59
2024-03-12T15:11:39.959Z,59
2024-03-12T15:12:27.726Z,59
2024-03-12T15:12:45.033Z,59
2024-03-12T15:12:54.957Z,59
2024-03-12T15:13:24.980Z,59
2024-03-12T15:13:59.948Z,59
2024-03-12T15:14:24.944Z,59
2024-03-12T15:14:44.950Z,59
2024-03-12T15:14:54.958Z,59
2024-03-12T15:15:04.964Z,59
2024-03-12T15:15:24.977Z,59
2024-03-12T15:15:49.992Z,59
2024-03-12T15:15:59.971Z,59
2024-03-12T15:16:09.998Z,59
2024-03-12T15:16:34.956Z,59
2024-03-12T15:16:49.955Z,59
2024-03-12T15:17:34.989Z,59
2024-03-12T15:18:05.010Z,59
2024-03-12T15:18:22.293Z,59
2024-03-12T15:18:39.992Z,59
2024-03-12T15:19:04.975Z,59
2024-03-12T15:19:30.005Z,59
2024-03-12T15:19:40.034Z,59
2024-03-12T15:19:59.964Z,59
2024-03-12T15:20:09.981Z,59
2024-03-12T15:20:34.971Z,59
2024-03-12T15:20:44.960Z,59
2024-03-12T15:20:54.992Z,59
2024-03-12T15:21:09.983Z,59
2024-03-12T15:21:29.970Z,59
2024-03-12T15:21:39.992Z,59
2024-03-12T15:21:50.033Z,59
2024-03-12T15:22:00.011Z,59
2024-03-12T15:22:10.008Z,59
2024-03-12T15:23:04.996Z,59
2024-03-12T15:23:34.995Z,59
2024-03-12T15:23:44.995Z,59
2024-03-12T15:24:09.995Z,59
2024-03-12T15:24:41.192Z,59
2024-03-12T15:24:50.029Z,59
2024-03-12T15:25:10.066Z,59
2024-03-12T15:25:50.089Z,59
2024-03-12T15:26:10.041Z,59
2024-03-12T15:26:55.067Z,59
2024-03-12T15:27:20.058Z,59
2024-03-12T15:27:55.078Z,59
2024-03-12T15:28:05.130Z,59
2024-03-12T15:28:20.165Z,59
2024-03-12T15:28:55.100Z,59
2024-03-12T15:29:05.089Z,59
2024-03-12T15:29:20.096Z,59
2024-03-12T15:29:30.084Z,59
2024-03-12T15:30:10.119Z,59
2024-03-12T15:30:20.104Z,59
2024-03-12T15:30:30.116Z,59
2024-03-12T15:31:15.187Z,59
2024-03-12T15:31:40.273Z,59
2024-03-12T15:32:05.114Z,59
2024-03-12T15:32:15.122Z,59
2024-03-12T15:32:25.119Z,59
2024-03-12T15:33:10.156Z,59
2024-03-12T15:33:25.137Z,59
2024-03-12T15:33:40.157Z,59
2024-03-12T15:34:10.186Z,59
2024-03-12T15:34:25.190Z,59
2024-03-12T15:34:45.116Z,59
2024-03-12T15:35:45.105Z,59
2024-03-12T15:35:55.115Z,59
2024-03-12T15:36:45.155Z,59
2024-03-12T15:36:55.196Z,59
2024-03-12T15:37:50.183Z,59
2024-03-12T15:38:00.279Z,59
2024-03-12T15:38:25.282Z,59
2024-03-12T15:38:35.164Z,59
2024-03-12T15:38:50.166Z,59
2024-03-12T15:39:00.170Z,59
2024-03-12T15:39:50.219Z,59
2024-03-12T15:40:00.404Z,59
2024-03-12T15:40:10.284Z,59
2024-03-12T15:41:00.177Z,59
2024-03-12T15:41:10.171Z,59
2024-03-12T15:41:55.173Z,59
2024-03-12T15:42:10.172Z,59
2024-03-12T15:42:35.334Z,59
2024-03-12T15:42:45.902Z,59
2024-03-12T15:42:55.198Z,59
2024-03-12T15:43:05.213Z,59
2024-03-12T15:43:15.214Z,59
2024-03-12T15:43:50.181Z,59
2024-03-12T15:44:00.208Z,59
2024-03-12T15:44:15.190Z,59
2024-03-12T15:44:25.185Z,59
2024-03-12T15:45:20.305Z,59
2024-03-12T15:45:30.179Z,59
2024-03-12T15:46:15.246Z,59
2024-03-12T15:46:25.223Z,59
2024-03-12T15:46:40.167Z,59
2024-03-12T15:46:50.193Z,59
2024-03-12T15:47:00.194Z,59
2024-03-12T15:48:25.202Z,59
2024-03-12T15:48:50.266Z,59
2024-03-12T15:49:35.181Z,59
2024-03-12T15:50:40.203Z,59
2024-03-12T15:51:15.211Z,59
2024-03-12T15:51:35.225Z,59
2024-03-12T15:51:45.239Z,59
2024-03-12T15:51:55.289Z,59
2024-03-12T15:52:05.254Z,59
2024-03-12T15:52:15.408Z,59
2024-03-12T15:52:40.232Z,59
2024-03-12T15:52:50.222Z,59
2024-03-12T15:53:00.262Z,59
2024-03-12T15:53:10.235Z,59
2024-03-12T15:53:20.240Z,59
2024-03-12T15:53:40.249Z,59
2024-03-12T15:53:50.235Z,59
2024-03-12T15:54:10.245Z,59
2024-03-12T15:54:20.260Z,59
2024-03-12T15:54:42.567Z,59
2024-03-12T15:54:50.311Z,59
2024-03-12T15:55:10.288Z,59
2024-03-12T15:55:40.334Z,59
2024-03-12T15:55:50.294Z,59
2024-03-12T15:56:15.277Z,59
2024-03-12T15:56:30.277Z,59
2024-03-12T15:56:45.259Z,59
2024-03-12T15:57:00.260Z,59
2024-03-12T15:57:15.314Z,59
2024-03-12T15:57:30.277Z,59
2024-03-12T15:58:05.324Z,59
2024-03-12T15:58:25.437Z,59
2024-03-12T15:58:35.863Z,59
2024-03-12T15:58:55.293Z,59
2024-03-12T15:59:05.279Z,59
2024-03-12T15:59:20.279Z,59
2024-03-12T15:59:30.282Z,59
2024-03-12T16:00:10.483Z,59
2024-03-12T16:00:42.805Z,59
2024-03-12T16:01:00.411Z,59
2024-03-12T16:01:20.398Z,59
2024-03-12T16:01:35.347Z,59
2024-03-12T16:02:25.384Z,59
2024-03-12T16:02:35.292Z,59
2024-03-12T16:02:45.378Z,59
2024-03-12T16:03:25.339Z,59
2024-03-12T16:03:35.345Z,59
2024-03-12T16:03:45.326Z,59
2024-03-12T16:04:05.342Z,59
2024-03-12T16:04:35.322Z,59
2024-03-12T16:04:45.322Z,59
2024-03-12T16:05:05.323Z,59
2024-03-12T16:05:35.332Z,59
2024-03-12T16:05:50.329Z,59
2024-03-12T16:06:45.359Z,59
2024-03-12T16:06:55.339Z,59
2024-03-12T16:07:15.393Z,59
2024-03-12T16:07:45.340Z,59
2024-03-12T16:08:00.347Z,59
2024-03-12T16:08:50.359Z,59
2024-03-12T16:09:00.348Z,59
2024-03-12T16:09:40.435Z,59
2024-03-12T16:09:50.437Z,59
2024-03-12T16:10:00.425Z,59
2024-03-12T16:10:45.365Z,59
2024-03-12T16:10:55.436Z,59
2024-03-12T16:11:05.419Z,59
2024-03-12T16:12:00.375Z,59
2024-03-12T16:12:15.374Z,59
2024-03-12T16:12:25.374Z,59
2024-03-12T16:13:00.501Z,59
2024-03-12T16:13:15.528Z,59
2024-03-12T16:13:50.391Z,59
2024-03-12T16:14:00.399Z,59
2024-03-12T16:14:25.397Z,59
2024-03-12T16:15:05.427Z,59
2024-03-12T16:15:25.432Z,59
2024-03-12T16:15:40.442Z,59
2024-03-12T16:15:55.423Z,59
2024-03-12T16:16:05.425Z,59
2024-03-12T16:16:15.469Z,59
2024-03-12T16:16:25.440Z,59
2024-03-12T16:16:45.420Z,59
2024-03-12T16:16:55.406Z,59
2024-03-12T16:17:05.413Z,59
2024-03-12T16:17:55.464Z,59
2024-03-12T16:18:25.468Z,59
2024-03-12T16:19:10.480Z,59
2024-03-12T16:19:35.421Z,59
2024-03-12T16:19:45.433Z,59
2024-03-12T16:20:16.422Z,59
2024-03-12T16:20:35.452Z,59